Terminal Aerodrome Forecast
Issued by NWS Blacksburg, VA

Current Version | Previous Version | Graphics & Text | Print | Product List | Glossary On
Versions: 1 2 3 4 5 6 7 8 9 10 11 12 13 14 15 16 17 18 19 20 21 22 23 24 25 26 27 28 29 30
443
FTUS41 KRNK 122322
TAFBLF
TAF
KBLF 122322Z 1300/1324 31015G25KT P6SM -SN OVC035
      TEMPO 1300/1302 2SM -SHSN OVC007
     FM130500 29017G27KT 6SM -SHSN BKN030
     FM130700 30016G25KT P6SM BKN045
     FM130900 29013G22KT P6SM SCT050
     FM131900 26009KT P6SM FEW050
     FM132300 22010KT P6SM SCT050=

USA.gov is the U.S. government's official web portal to all federal, state and local government web resources and services.